Latest Coastal Weather Observations for Hogan Island

IDT60701

Issued at 4:25 am EDT Sunday 26 October 2014 (issued every 10 minutes, with the page automatically refreshed every 10 minutes)

About coastal observations | Map of coastal stations | Coastal observations for TAS | Marine services | Other Formats
Station Details ID: 200838 Name: HOGAN ISLAND Lat: -39.22 Lon: 146.98 Height: 116.0 m
Data from the previous 72 hours. | See also: Recent months at Hogan Island
Date/Time
EDT
Temp

°C
Wind Pressure Rain
since 9am
mm
Weather Cloud Vis
km
Sea
Height
m
Swell
Dir
 
Speed
knots
Gust
knots
hPa Trend Height
m
Period
s
Dir
26/04:00am 12.0 SW 5 6 1012.7 - 0.0 - - - - - - -
26/03:30am 12.0 SSW 5 7 1013.2 - 0.0 - - - - - - -
26/03:00am 11.9 WSW 6 7 1013.5 - 0.0 - - - - - - -
26/02:30am 11.8 WNW 2 7 1013.9 - 0.0 - - - - - - -
26/02:00am 11.9 CALM 0 0 1013.8 - 0.0 - - - - - - -
26/01:30am 12.3 WNW 9 11 1014.4 - 0.0 - - - - - - -
26/01:00am 12.7 WNW 9 10 1015.0 - 0.0 - - - - - - -
26/12:30am 12.6 WNW 8 9 1015.6 - 0.0 - - - - - - -
26/12:00am 12.8 NW 6 8 1015.8 - 0.0 - - - - - - -
 
Date/Time
EDT
Temp

°C
Wind Pressure Rain
since 9am
mm
Weather Cloud Vis
km
Sea
Height
m
Swell
Dir
 
Speed
knots
Gust
knots
hPa Trend Height
m
Period
s
Dir
25/11:30pm 12.7 NE 5 6 1015.9 - 0.0 - - - - - - -
25/11:00pm 12.5 ENE 2 4 1016.1 - 0.0 - - - - - - -
25/10:30pm 12.9 E 7 7 1016.2 - 0.0 - - - - - - -
25/10:00pm 12.7 SSE 5 7 1016.4 - 0.0 - - - - - - -
25/09:30pm 12.7 S 7 8 1016.6 - 0.0 - - - - - - -
25/09:00pm 12.6 ESE 5 6 1016.7 - 0.0 - - - - - - -
25/08:30pm 12.6 ESE 4 5 1016.6 - 0.0 - - - - - - -
25/08:00pm 12.7 CALM 0 0 1016.2 - 0.0 - - - - - - -
25/07:30pm 12.8 ESE 2 4 1016.1 - 0.0 - - - - - - -
25/07:00pm 13.1 SE 6 7 1015.5 - 0.0 - - - - - - -
25/06:30pm 13.5 S 7 8 1015.4 - 0.0 - - - - - - -
25/06:00pm 13.7 SSW 8 11 1015.4 - 0.0 - - - - - - -
25/05:30pm 14.2 SSW 9 13 1015.3 - 0.0 - - - - - - -
25/05:00pm 14.8 SW 10 11 1015.2 - 0.0 - - - - - - -
25/04:30pm 15.4 SW 11 13 1015.3 - 0.0 - - - - - - -
25/04:00pm 15.2 SW 12 14 1015.3 - 0.0 - - - - - - -
25/03:30pm 14.8 WSW 13 17 1015.6 - 0.0 - - - - - - -
25/03:00pm 15.4 WSW 11 13 1015.6 - 0.0 - - - - - - -
25/02:30pm 16.6 SW 14 17 1015.6 - 0.0 - - - - - - -
25/02:00pm 16.7 SW 13 15 1015.7 - 0.0 - - - - - - -
25/01:30pm 16.3 WSW 13 15 1015.8 - 0.0 - - - - - - -
25/01:00pm 17.8 WSW 15 17 1015.7 - 0.0 - - - - - - -
25/12:30pm 17.1 WSW 17 19 1015.9 - 0.0 - - - - - - -
25/12:00pm 17.3 W 16 19 1016.3 - 0.0 - - - - - - -
25/11:30am 16.5 W 17 19 1016.4 - 0.0 - - - - - - -
25/11:00am 16.2 W 21 23 1016.6 - 0.0 - - - - - - -
25/10:30am 16.1 W 19 22 1016.5 - 0.0 - - - - - - -
25/10:00am 15.9 W 21 25 1016.6 - 0.0 - - - - - - -
25/09:30am 14.7 W 21 25 1016.7 - 0.0 - - - - - - -
25/09:00am 14.4 W 22 25 1016.5 - 0.2 - - - - - - -
25/08:30am 13.5 W 21 26 1016.3 - 0.2 - - - - - - -
25/08:00am 13.7 W 23 26 1016.2 - 0.2 - - - - - - -
25/07:30am 13.5 W 22 26 1015.8 - 0.2 - - - - - - -
25/07:00am 13.2 W 22 25 1015.4 - 0.2 - - - - - - -
25/06:30am 13.0 W 25 28 1015.2 - 0.2 - - - - - - -
25/06:00am 12.9 W 25 30 1014.8 - 0.2 - - - - - - -
25/05:30am 12.7 W 28 34 1014.4 - 0.2 - - - - - - -
25/05:00am 12.9 W 29 34 1013.9 - 0.2 - - - - - - -
25/04:30am 13.0 W 28 32 1013.8 - 0.2 - - - - - - -
25/04:00am 13.1 W 28 33 1013.7 - 0.2 - - - - - - -
25/03:30am 13.2 W 29 34 1013.8 - 0.2 - - - - - - -
25/03:00am 13.0 W 27 32 1013.6 - 0.2 - - - - - - -
25/02:30am 13.4 W 34 38 1013.1 - 0.2 - - - - - - -
25/02:00am 13.2 W 30 35 1013.1 - 0.2 - - - - - - -
25/01:30am 13.3 W 26 30 1013.4 - 0.2 - - - - - - -
25/01:00am 13.2 W 29 32 1013.3 - 0.2 - - - - - - -
25/12:30am 13.5 W 26 31 1013.2 - 0.2 - - - - - - -
25/12:00am 13.5 W 28 31 1012.8 - 0.2 - - - - - - -
 
Date/Time
EDT
Temp

°C
Wind Pressure Rain
since 9am
mm
Weather Cloud Vis
km
Sea
Height
m
Swell
Dir
 
Speed
knots
Gust
knots
hPa Trend Height
m
Period
s
Dir
24/11:30pm 13.5 W 26 30 1012.8 - 0.2 - - - - - - -
24/11:00pm 13.5 W 20 24 1012.8 - 0.2 - - - - - - -
24/10:30pm 13.5 W 21 25 1012.9 - 0.2 - - - - - - -
24/10:00pm 13.6 W 23 27 1012.6 - 0.2 - - - - - - -
24/09:30pm 13.9 W 24 29 1012.4 - 0.2 - - - - - - -
24/09:00pm 14.7 W 28 35 1012.3 - 0.2 - - - - - - -
24/08:57pm 14.8 W 27 35 1012.2 - 0.2 - - - - - - -
24/08:30pm 14.8 W 21 25 1011.8 - 0.2 - - - - - - -
24/08:00pm 15.0 WNW 15 17 1011.4 - 0.2 - - - - - - -
24/07:30pm 15.7 WNW 18 21 1010.7 - 0.2 - - - - - - -
24/07:00pm 16.5 WNW 17 21 1010.5 - 0.2 - - - - - - -
24/06:30pm 16.6 WNW 17 20 1010.2 - 0.2 - - - - - - -
24/06:00pm 16.7 W 14 19 1010.0 - 0.2 - - - - - - -
24/05:48pm 18.0 W 15 20 1009.9 - 0.2 - - - - - - -
24/05:30pm 18.7 WNW 7 10 1009.9 - 0.2 - - - - - - -
24/05:00pm 18.8 N 4 6 1009.7 - 0.2 - - - - - - -
24/04:30pm 20.7 N 4 6 1009.9 - 0.2 - - - - - - -
24/04:00pm 18.9 N 4 6 1010.0 - 0.0 - - - - - - -
24/03:30pm 18.4 NE 5 6 1010.0 - 0.0 - - - - - - -
24/03:00pm 16.9 NNE 9 11 1010.0 - 0.0 - - - - - - -
24/02:30pm 17.1 NNE 10 11 1010.2 - 0.0 - - - - - - -
24/02:00pm 17.3 NE 10 12 1010.6 - 0.0 - - - - - - -
24/01:30pm 17.2 NE 14 16 1010.7 - 0.0 - - - - - - -
24/01:00pm 16.4 ENE 13 16 1011.0 - 0.0 - - - - - - -
24/12:30pm 16.3 ENE 12 14 1011.6 - 0.0 - - - - - - -
24/12:00pm 16.1 ENE 16 19 1011.8 - 0.0 - - - - - - -
24/11:30am 16.0 ENE 19 21 1012.1 - 0.0 - - - - - - -
24/11:00am 15.6 ENE 19 23 1012.5 - 0.0 - - - - - - -
24/10:30am 15.7 E 24 29 1012.6 - 0.0 - - - - - - -
24/10:00am 15.3 E 25 31 1012.6 - 0.0 - - - - - - -
24/09:30am 15.3 E 25 32 1013.2 - 0.0 - - - - - - -
24/09:00am 15.1 E 26 32 1013.6 - 0.0 - - - - - - -
24/08:30am 14.9 E 25 31 1013.9 - 0.0 - - - - - - -
24/08:00am 14.8 E 26 33 1014.4 - 0.0 - - - - - - -
24/07:30am 14.7 E 25 31 1014.7 - 0.0 - - - - - - -
24/07:00am 14.7 E 25 31 1014.9 - 0.0 - - - - - - -
24/06:30am 14.6 E 27 32 1015.0 - 0.0 - - - - - - -
24/06:00am 14.4 E 27 31 1014.9 - 0.0 - - - - - - -
24/05:30am 14.3 E 28 32 1015.0 - 0.0 - - - - - - -
24/05:00am 14.2 E 29 36 1015.0 - 0.0 - - - - - - -
24/04:30am 14.1 E 29 34 1015.1 - 0.0 - - - - - - -
24/04:00am 14.0 E 30 34 1015.5 - 0.0 - - - - - - -
24/03:30am 13.9 E 29 36 1016.1 - 0.0 - - - - - - -
24/03:00am 13.8 E 31 35 1016.6 - 0.0 - - - - - - -
24/02:30am 13.6 E 31 35 1016.9 - 0.0 - - - - - - -
24/02:00am 13.4 E 31 35 1017.5 - 0.0 - - - - - - -
24/01:30am 13.3 E 34 39 1018.0 - 0.0 - - - - - - -
24/01:00am 13.3 E 33 39 1018.5 - 0.0 - - - - - - -
24/12:30am 13.3 E 34 39 1018.8 - 0.0 - - - - - - -
24/12:00am 13.3 E 33 37 1019.1 - 0.0 - - - - - - -
 
Date/Time
EDT
Temp

°C
Wind Pressure Rain
since 9am
mm
Weather Cloud Vis
km
Sea
Height
m
Swell
Dir
 
Speed
knots
Gust
knots
hPa Trend Height
m
Period
s
Dir
23/11:30pm 13.2 E 33 39 1019.4 - 0.0 - - - - - - -
23/11:00pm 13.3 E 33 37 1020.0 - 0.0 - - - - - - -
23/10:30pm 13.2 E 32 37 1020.2 - 0.0 - - - - - - -
23/10:00pm 13.1 E 33 37 1020.5 - 0.0 - - - - - - -
23/09:30pm 13.1 E 33 39 1020.8 - 0.0 - - - - - - -
23/09:00pm 13.1 E 33 38 1020.8 - 0.0 - - - - - - -
23/08:30pm 13.0 E 31 35 1020.8 - 0.0 - - - - - - -
23/08:00pm 12.9 E 31 35 1020.7 - 0.0 - - - - - - -
23/07:30pm 12.9 E 32 38 1020.5 - 0.0 - - - - - - -
23/07:00pm 13.0 E 32 38 1020.3 - 0.0 - - - - - - -
23/06:30pm 13.0 E 31 37 1020.4 - 0.0 - - - - - - -
23/06:00pm 13.1 E 33 37 1020.3 - 0.0 - - - - - - -
23/05:30pm 13.5 E 31 35 1020.3 - 0.0 - - - - - - -
23/05:00pm 13.8 E 32 36 1020.2 - 0.0 - - - - - - -
23/04:30pm 13.9 E 31 36 1020.4 - 0.0 - - - - - - -
23/04:00pm 14.3 E 33 38 1020.3 - 0.0 - - - - - - -
23/03:30pm 14.7 E 31 35 1020.7 - 0.0 - - - - - - -
23/03:00pm 14.8 E 31 35 1020.9 - 0.0 - - - - - - -
23/02:30pm 15.9 E 28 32 1021.0 - 0.0 - - - - - - -
23/02:00pm 15.3 E 28 34 1021.2 - 0.0 - - - - - - -
23/01:30pm 15.8 E 28 32 1021.2 - 0.0 - - - - - - -
23/01:00pm 15.5 E 27 35 1021.2 - 0.0 - - - - - - -
23/12:30pm 15.7 E 30 37 1021.2 - 0.0 - - - - - - -
23/12:24pm 15.2 E 27 37 1021.2 - 0.0 - - - - - - -
23/12:00pm 15.6 ESE 28 33 1021.2 - 0.0 - - - - - - -
23/11:30am 15.4 ESE 30 35 1021.2 - 0.0 - - - - - - -
23/11:00am 15.4 ESE 31 35 1021.1 - 0.0 - - - - - - -
23/10:30am 15.6 ESE 25 31 1021.2 - 0.0 - - - - - - -
23/10:00am 16.2 ESE 24 31 1021.1 - 0.0 - - - - - - -
23/09:30am 15.0 ESE 26 33 1020.7 - 0.0 - - - - - - -
23/09:00am 14.4 ESE 22 26 1020.8 - 0.0 - - - - - - -
23/08:30am 14.1 E 23 27 1020.7 - 0.0 - - - - - - -
23/08:00am 13.8 E 20 24 1020.4 - 0.0 - - - - - - -
23/07:30am 14.1 E 21 25 1019.6 - 0.0 - - - - - - -
23/07:00am 13.5 E 20 25 1019.0 - 0.0 - - - - - - -
23/06:30am 13.2 E 21 25 1018.6 - 0.0 - - - - - - -
23/06:00am 13.3 E 20 23 1018.0 - 0.0 - - - - - - -
23/05:30am 13.4 E 19 22 1017.2 - 0.0 - - - - - - -
23/05:00am 13.5 ESE 16 18 1016.8 - 0.0 - - - - - - -
23/04:30am 13.6 SSE 16 18 1016.5 - 0.0 - - - - - - -

Other Formats:

Comma delimited format used in spreadsheet applications
http://www.bom.gov.au/fwo/IDT60701/IDT60701.94949.axf

JavaScript Object Notation format (JSON) in row-major order
http://www.bom.gov.au/fwo/IDT60701/IDT60701.94949.json